createdAt,value
2022-10-11T00:00:14.186Z,14.08
2022-10-11T00:01:14.189Z,14.10
2022-10-11T00:02:14.205Z,14.04
2022-10-11T00:03:14.147Z,13.99
2022-10-11T00:04:14.133Z,13.99
2022-10-11T00:05:14.137Z,13.97
2022-10-11T00:06:14.138Z,13.92
2022-10-11T00:07:14.109Z,13.97
2022-10-11T00:08:14.127Z,13.95
2022-10-11T00:09:14.098Z,13.90
2022-10-11T00:10:14.082Z,13.95
2022-10-11T00:11:14.065Z,13.95
2022-10-11T00:12:14.044Z,13.87
2022-10-11T00:13:14.045Z,13.87
2022-10-11T00:14:14.065Z,13.85
2022-10-11T00:15:14.016Z,13.87
2022-10-11T00:16:14.010Z,13.86
2022-10-11T00:17:13.999Z,13.83
2022-10-11T00:18:13.984Z,13.83
2022-10-11T00:19:14.005Z,13.78
2022-10-11T00:20:13.987Z,13.75
2022-10-11T00:21:13.953Z,13.78
2022-10-11T00:22:13.948Z,13.78
2022-10-11T00:23:13.935Z,13.79
2022-10-11T00:24:13.951Z,13.83
2022-10-11T00:25:13.915Z,13.78
2022-10-11T00:26:13.906Z,13.71
2022-10-11T00:27:13.894Z,13.67
2022-10-11T00:28:13.936Z,13.67
2022-10-11T00:29:13.869Z,13.63
2022-10-11T00:30:13.889Z,13.63
2022-10-11T00:31:13.848Z,13.72
2022-10-11T00:32:13.838Z,13.67
2022-10-11T00:33:13.866Z,13.70
2022-10-11T00:34:13.825Z,13.71
2022-10-11T00:35:13.806Z,13.68
2022-10-11T00:36:13.792Z,13.70
2022-10-11T00:37:13.797Z,13.59
2022-10-11T00:38:13.774Z,13.62
2022-10-11T00:39:14.590Z,13.59
2022-10-11T00:40:13.784Z,13.56
2022-10-11T00:41:13.765Z,13.54
2022-10-11T00:42:13.738Z,13.54
2022-10-11T00:43:13.731Z,13.49
2022-10-11T00:44:13.733Z,13.53
2022-10-11T00:45:13.722Z,13.54
2022-10-11T00:46:13.697Z,13.42
2022-10-11T00:47:13.685Z,13.50
2022-10-11T00:48:13.667Z,13.46
2022-10-11T00:49:13.646Z,13.41
2022-10-11T00:50:13.653Z,13.39
2022-10-11T00:51:13.622Z,13.39
2022-10-11T00:52:13.653Z,13.42
2022-10-11T00:53:13.615Z,13.44
2022-10-11T00:54:13.591Z,13.41
2022-10-11T00:55:13.595Z,13.44
2022-10-11T00:56:13.563Z,13.37
2022-10-11T00:57:13.558Z,13.33
2022-10-11T00:58:13.606Z,13.41
2022-10-11T00:59:13.546Z,13.33
2022-10-11T01:00:13.532Z,13.33
2022-10-11T01:01:13.593Z,13.37
2022-10-11T01:02:13.514Z,13.33
2022-10-11T01:03:13.508Z,13.28
2022-10-11T01:04:13.499Z,13.27
2022-10-11T01:05:30.178Z,13.27
2022-10-11T01:06:14.454Z,13.19
2022-10-11T01:07:13.447Z,13.18
2022-10-11T01:08:13.441Z,13.12
2022-10-11T01:09:13.480Z,13.11
2022-10-11T01:10:13.455Z,13.11
2022-10-11T01:11:13.476Z,13.08
2022-10-11T01:12:13.395Z,13.11
2022-10-11T01:13:13.428Z,13.03
2022-10-11T01:14:13.390Z,13.03
2022-10-11T01:15:13.371Z,13.05
2022-10-11T01:16:13.362Z,13.03
2022-10-11T01:17:13.338Z,13.12
2022-10-11T01:18:13.346Z,13.00
2022-10-11T01:19:13.341Z,13.05
2022-10-11T01:20:13.306Z,13.03
2022-10-11T01:21:13.317Z,13.11
2022-10-11T01:22:13.286Z,13.05
2022-10-11T01:23:13.278Z,13.03
2022-10-11T01:24:13.288Z,13.05
2022-10-11T01:25:13.281Z,12.95
2022-10-11T01:26:13.274Z,13.00
2022-10-11T01:27:13.235Z,12.95
2022-10-11T01:28:13.307Z,12.93
2022-10-11T01:29:13.244Z,12.94
2022-10-11T01:30:13.245Z,12.95
2022-10-11T01:31:13.192Z,12.90
2022-10-11T01:32:13.182Z,12.93
2022-10-11T01:33:13.176Z,12.94
2022-10-11T01:34:13.158Z,12.94
2022-10-11T01:35:13.157Z,12.93
2022-10-11T01:36:13.163Z,12.93
2022-10-11T01:37:13.128Z,12.93
2022-10-11T01:38:13.138Z,12.90
2022-10-11T01:39:13.106Z,12.93
2022-10-11T01:40:13.098Z,12.86
2022-10-11T01:41:13.106Z,12.91
2022-10-11T01:42:13.081Z,12.85
2022-10-11T01:43:13.055Z,12.83
2022-10-11T01:44:13.042Z,12.83
2022-10-11T01:45:13.078Z,12.82
2022-10-11T01:46:13.042Z,12.79
2022-10-11T01:47:13.016Z,12.76
2022-10-11T01:48:12.999Z,12.70
2022-10-11T01:49:13.006Z,12.67
2022-10-11T01:50:12.988Z,12.65
2022-10-11T01:51:13.012Z,12.68
2022-10-11T01:52:12.967Z,12.72
2022-10-11T01:53:12.965Z,12.55
2022-10-11T01:54:12.939Z,12.72
2022-10-11T01:55:12.934Z,12.62
2022-10-11T01:56:12.940Z,12.60
2022-10-11T01:57:12.916Z,12.61
2022-10-11T01:58:12.910Z,12.58
2022-10-11T01:59:12.886Z,12.57
2022-10-11T02:00:12.899Z,12.57
2022-10-11T02:01:12.936Z,12.58
2022-10-11T02:02:12.867Z,12.61
2022-10-11T02:03:12.862Z,12.60
2022-10-11T02:04:12.846Z,12.53
2022-10-11T02:05:12.821Z,12.55
2022-10-11T02:06:12.817Z,12.55
2022-10-11T02:07:12.814Z,12.62
2022-10-11T02:08:12.807Z,12.45
2022-10-11T02:09:12.782Z,12.49
2022-10-11T02:10:12.771Z,12.35
2022-10-11T02:11:12.758Z,12.31
2022-10-11T02:12:12.755Z,12.27
2022-10-11T02:13:12.747Z,12.27
2022-10-11T02:14:12.762Z,12.21
2022-10-11T02:15:12.737Z,12.25
2022-10-11T02:16:12.723Z,12.21
2022-10-11T02:17:12.695Z,12.27
2022-10-11T02:18:12.703Z,12.25
2022-10-11T02:19:12.710Z,12.21
2022-10-11T02:20:12.673Z,12.29
2022-10-11T02:21:12.669Z,12.22
2022-10-11T02:22:12.658Z,12.27
2022-10-11T02:23:12.634Z,12.24
2022-10-11T02:24:12.622Z,12.29
2022-10-11T02:25:12.638Z,12.29
2022-10-11T02:26:12.613Z,12.18
2022-10-11T02:27:12.583Z,12.17
2022-10-11T02:28:12.628Z,12.15
2022-10-11T02:29:12.586Z,12.21
2022-10-11T02:30:12.561Z,12.22
2022-10-11T02:31:12.561Z,12.15
2022-10-11T02:32:12.540Z,12.17
2022-10-11T02:33:12.536Z,12.12
2022-10-11T02:34:12.523Z,12.13
2022-10-11T02:35:12.524Z,12.02
2022-10-11T02:36:12.521Z,12.06
2022-10-11T02:37:12.502Z,11.94
2022-10-11T02:38:12.482Z,11.88
2022-10-11T02:39:12.465Z,11.75
2022-10-11T02:40:12.466Z,11.81
2022-10-11T02:41:12.445Z,11.65
2022-10-11T02:42:12.429Z,11.62
2022-10-11T02:43:12.426Z,11.72
2022-10-11T02:44:12.423Z,11.69
2022-10-11T02:45:12.395Z,11.73
2022-10-11T02:46:12.396Z,11.65
2022-10-11T02:47:12.374Z,11.63
2022-10-11T02:48:12.363Z,11.60
2022-10-11T02:49:12.350Z,11.52
2022-10-11T02:50:12.367Z,11.65
2022-10-11T02:51:12.342Z,11.54
2022-10-11T02:52:12.316Z,11.60
2022-10-11T02:53:12.333Z,11.57
2022-10-11T02:54:12.299Z,11.57
2022-10-11T02:55:12.297Z,11.57
2022-10-11T02:56:12.280Z,11.48
2022-10-11T02:57:12.277Z,11.57
2022-10-11T02:58:12.256Z,11.55
2022-10-11T02:59:12.249Z,11.55
2022-10-11T03:00:12.233Z,11.45
2022-10-11T03:01:12.270Z,11.55
2022-10-11T03:02:12.209Z,11.52
2022-10-11T03:03:12.209Z,11.48
2022-10-11T03:04:12.208Z,11.43
2022-10-11T03:05:12.181Z,11.50
2022-10-11T03:06:12.188Z,11.55
2022-10-11T03:07:12.162Z,11.54
2022-10-11T03:08:12.195Z,11.54
2022-10-11T03:09:12.167Z,11.48
2022-10-11T03:10:12.275Z,11.32
2022-10-11T03:11:12.127Z,11.37
2022-10-11T03:12:12.105Z,11.40
2022-10-11T03:13:15.954Z,11.27
2022-10-11T03:14:13.105Z,11.37
2022-10-11T03:15:12.076Z,11.45
2022-10-11T03:16:12.460Z,11.41
2022-10-11T03:17:35.018Z,11.43
2022-10-11T03:18:13.046Z,11.41
2022-10-11T03:19:14.649Z,11.44
2022-10-11T03:20:13.016Z,11.41
2022-10-11T03:21:12.023Z,11.52
2022-10-11T03:22:12.068Z,11.48
2022-10-11T03:23:11.992Z,11.54
2022-10-11T03:24:11.967Z,11.47
2022-10-11T03:25:11.984Z,11.43
2022-10-11T03:26:11.957Z,11.45
2022-10-11T03:27:11.951Z,11.36
2022-10-11T03:28:11.989Z,11.22
2022-10-11T03:29:12.026Z,11.23
2022-10-11T03:30:16.127Z,11.22
2022-10-11T03:31:11.937Z,11.30
2022-10-11T03:32:11.893Z,11.26
2022-10-11T03:33:11.882Z,11.29
2022-10-11T03:34:11.866Z,11.15
2022-10-11T03:35:11.854Z,11.19
2022-10-11T03:36:11.857Z,11.11
2022-10-11T03:37:11.848Z,11.18
2022-10-11T03:38:13.050Z,11.05
2022-10-11T03:39:11.821Z,10.99
2022-10-11T03:40:11.830Z,11.00
2022-10-11T03:41:11.787Z,10.99
2022-10-11T03:42:11.782Z,11.04
2022-10-11T03:43:11.796Z,11.14
2022-10-11T03:44:11.785Z,11.15
2022-10-11T03:45:11.776Z,11.17
2022-10-11T03:46:11.754Z,11.19
2022-10-11T03:47:11.730Z,11.23
2022-10-11T03:48:11.718Z,11.14
2022-10-11T03:49:11.719Z,11.23
2022-10-11T03:50:11.710Z,11.26
2022-10-11T03:51:11.704Z,11.37
2022-10-11T03:52:11.671Z,11.26
2022-10-11T03:53:11.671Z,11.37
2022-10-11T03:54:11.666Z,11.45
2022-10-11T03:55:11.649Z,11.35
2022-10-11T03:56:12.087Z,11.40
2022-10-11T03:57:11.658Z,11.41
2022-10-11T03:58:11.621Z,11.26
2022-10-11T03:59:11.619Z,11.23
2022-10-11T04:00:11.591Z,11.17
2022-10-11T04:01:11.579Z,11.15
2022-10-11T04:02:11.653Z,11.17
2022-10-11T04:03:11.639Z,11.14
2022-10-11T04:04:11.561Z,11.17
2022-10-11T04:05:11.538Z,11.11
2022-10-11T04:06:11.527Z,11.14
2022-10-11T04:07:11.516Z,11.18
2022-10-11T04:08:12.483Z,11.18
2022-10-11T04:09:11.513Z,11.19
2022-10-11T04:10:11.491Z,11.19
2022-10-11T04:11:11.461Z,11.18
2022-10-11T04:12:11.458Z,11.15
2022-10-11T04:13:11.450Z,11.10
2022-10-11T04:14:11.470Z,11.14
2022-10-11T04:15:11.429Z,11.15
2022-10-11T04:16:11.410Z,11.12
2022-10-11T04:17:11.401Z,11.18
2022-10-11T04:18:11.398Z,11.18
2022-10-11T04:19:11.389Z,11.25
2022-10-11T04:20:11.401Z,11.18
2022-10-11T04:21:11.362Z,11.29
2022-10-11T04:22:11.350Z,11.22
2022-10-11T04:23:11.332Z,11.23
2022-10-11T04:24:11.337Z,11.22
2022-10-11T04:25:11.340Z,11.18
2022-10-11T04:26:11.325Z,11.29
2022-10-11T04:27:11.294Z,11.18
2022-10-11T04:28:11.295Z,11.22
2022-10-11T04:29:11.281Z,11.11
2022-10-11T04:30:11.291Z,11.18
2022-10-11T04:31:11.257Z,11.18
2022-10-11T04:32:11.262Z,11.18
2022-10-11T04:33:11.226Z,11.26
2022-10-11T04:34:11.223Z,11.17
2022-10-11T04:35:11.229Z,10.99
2022-10-11T04:36:11.216Z,11.05
2022-10-11T04:37:11.189Z,11.04
2022-10-11T04:38:11.178Z,11.02
2022-10-11T04:39:11.181Z,11.05
2022-10-11T04:40:11.179Z,11.08
2022-10-11T04:41:11.154Z,11.00
2022-10-11T04:42:11.142Z,11.10
2022-10-11T04:43:11.128Z,11.04
2022-10-11T04:44:11.133Z,11.15
2022-10-11T04:45:18.185Z,11.07
2022-10-11T04:46:11.587Z,11.14
2022-10-11T04:47:11.067Z,11.14
2022-10-11T04:48:11.065Z,10.99
2022-10-11T04:49:11.052Z,11.00
2022-10-11T04:50:11.034Z,11.08
2022-10-11T04:51:11.045Z,11.05
2022-10-11T04:52:11.024Z,11.07
2022-10-11T04:53:11.008Z,11.07
2022-10-11T04:54:11.567Z,11.00
2022-10-11T04:55:10.990Z,10.97
2022-10-11T04:56:11.013Z,11.10
2022-10-11T04:57:10.974Z,11.11
2022-10-11T04:58:10.965Z,11.11
2022-10-11T04:59:10.959Z,11.02
2022-10-11T05:00:10.923Z,10.99
2022-10-11T05:01:10.915Z,11.15
2022-10-11T05:02:11.004Z,11.15
2022-10-11T05:03:10.913Z,11.14
2022-10-11T05:04:10.881Z,11.04
2022-10-11T05:05:10.895Z,11.14
2022-10-11T05:06:11.239Z,11.14
2022-10-11T05:07:10.847Z,11.00
2022-10-11T05:08:10.846Z,11.12
2022-10-11T05:09:10.829Z,11.15
2022-10-11T05:10:10.836Z,11.11
2022-10-11T05:11:10.808Z,11.17
2022-10-11T05:12:10.795Z,11.15
2022-10-11T05:13:10.804Z,11.14
2022-10-11T05:14:10.791Z,11.15
2022-10-11T05:15:10.763Z,11.19
2022-10-11T05:16:11.521Z,11.14
2022-10-11T05:17:10.762Z,10.99
2022-10-11T05:18:10.744Z,11.10
2022-10-11T05:19:10.732Z,11.04
2022-10-11T05:20:10.706Z,11.12
2022-10-11T05:21:10.699Z,11.04
2022-10-11T05:22:10.697Z,10.89
2022-10-11T05:23:10.715Z,10.97
2022-10-11T05:24:10.687Z,11.05
2022-10-11T05:25:10.663Z,10.99
2022-10-11T05:26:10.716Z,11.12
2022-10-11T05:27:10.820Z,11.02
2022-10-11T05:28:10.784Z,11.11
2022-10-11T05:29:19.278Z,11.04
2022-10-11T05:30:10.605Z,11.02
2022-10-11T05:31:13.121Z,11.10
2022-10-11T05:32:10.584Z,11.14
2022-10-11T05:33:10.585Z,11.15
2022-10-11T05:34:10.579Z,11.18
2022-10-11T05:35:10.557Z,11.15
2022-10-11T05:36:10.539Z,11.12
2022-10-11T05:37:10.532Z,11.10
2022-10-11T05:38:10.541Z,11.08
2022-10-11T05:39:10.510Z,11.00
2022-10-11T05:40:10.501Z,11.07
2022-10-11T05:41:10.490Z,11.07
2022-10-11T05:42:10.483Z,11.15
2022-10-11T05:43:10.511Z,11.11
2022-10-11T05:44:10.451Z,11.10
2022-10-11T05:45:10.467Z,11.10
2022-10-11T05:46:10.437Z,11.04
2022-10-11T05:47:10.424Z,10.93
2022-10-11T05:48:10.410Z,10.97
2022-10-11T05:49:10.407Z,10.99
2022-10-11T05:50:10.393Z,10.96
2022-10-11T05:51:10.382Z,10.93
2022-10-11T05:52:10.371Z,11.07
2022-10-11T05:53:10.371Z,10.96
2022-10-11T05:54:10.361Z,11.02
2022-10-11T05:55:10.351Z,10.97
2022-10-11T05:56:10.332Z,11.02
2022-10-11T05:57:10.317Z,11.02
2022-10-11T05:58:10.330Z,11.05
2022-10-11T05:59:10.311Z,10.99
2022-10-11T06:00:10.282Z,11.02
2022-10-11T06:01:10.369Z,11.12
2022-10-11T06:02:10.274Z,11.18
2022-10-11T06:03:10.254Z,11.33
2022-10-11T06:04:10.236Z,11.37
2022-10-11T06:05:10.245Z,11.54
2022-10-11T06:06:10.857Z,11.44
2022-10-11T06:07:10.218Z,11.50
2022-10-11T06:08:10.203Z,11.57
2022-10-11T06:09:10.192Z,11.50
2022-10-11T06:10:10.199Z,11.48
2022-10-11T06:11:12.038Z,11.35
2022-10-11T06:12:10.153Z,11.40
2022-10-11T06:13:10.153Z,11.26
2022-10-11T06:14:10.132Z,11.08
2022-10-11T06:15:10.116Z,11.07
2022-10-11T06:16:10.136Z,11.02
2022-10-11T06:17:10.121Z,10.97
2022-10-11T06:18:10.118Z,10.99
2022-10-11T06:19:10.081Z,10.99
2022-10-11T06:20:10.075Z,10.97
2022-10-11T06:21:10.056Z,11.15
2022-10-11T06:22:10.053Z,11.18
2022-10-11T06:23:10.040Z,11.17
2022-10-11T06:24:10.024Z,11.17
2022-10-11T06:25:10.010Z,11.29
2022-10-11T06:26:10.468Z,11.22
2022-10-11T06:27:09.986Z,11.17
2022-10-11T06:28:10.017Z,11.22
2022-10-11T06:29:10.002Z,11.18
2022-10-11T06:30:10.645Z,11.17
2022-10-11T06:31:09.971Z,11.15
2022-10-11T06:32:09.950Z,11.17
2022-10-11T06:33:09.966Z,11.14
2022-10-11T06:34:09.915Z,11.15
2022-10-11T06:35:09.894Z,11.11
2022-10-11T06:36:09.906Z,11.15
2022-10-11T06:37:09.897Z,11.22
2022-10-11T06:38:09.875Z,11.22
2022-10-11T06:39:09.863Z,11.23
2022-10-11T06:40:09.855Z,11.35
2022-10-11T06:41:09.836Z,11.40
2022-10-11T06:42:09.916Z,11.40
2022-10-11T06:43:09.837Z,11.41
2022-10-11T06:44:14.022Z,11.50
2022-10-11T06:45:09.961Z,11.57
2022-10-11T06:46:09.780Z,11.50
2022-10-11T06:47:09.768Z,11.59
2022-10-11T06:48:09.888Z,11.55
2022-10-11T06:49:09.785Z,11.60
2022-10-11T06:50:09.748Z,11.62
2022-10-11T06:51:09.835Z,11.63
2022-10-11T06:52:09.718Z,11.62
2022-10-11T06:53:09.726Z,11.62
2022-10-11T06:54:09.713Z,11.66
2022-10-11T06:55:09.695Z,11.62
2022-10-11T06:56:09.869Z,11.65
2022-10-11T06:57:09.661Z,11.68
2022-10-11T06:58:09.696Z,11.55
2022-10-11T06:59:10.600Z,11.48
2022-10-11T07:00:12.664Z,11.51
2022-10-11T07:01:09.700Z,11.52
2022-10-11T07:02:09.608Z,11.54
2022-10-11T07:03:09.611Z,11.45
2022-10-11T07:04:09.605Z,11.41
2022-10-11T07:05:09.622Z,11.44
2022-10-11T07:06:10.067Z,11.45
2022-10-11T07:07:09.555Z,11.45
2022-10-11T07:08:09.562Z,11.41
2022-10-11T07:09:09.572Z,11.50
2022-10-11T07:10:09.533Z,11.57
2022-10-11T07:11:09.549Z,11.54
2022-10-11T07:12:09.508Z,11.60
2022-10-11T07:13:13.552Z,11.60
2022-10-11T07:14:10.483Z,11.72
2022-10-11T07:15:09.485Z,11.72
2022-10-11T07:16:09.844Z,11.84
2022-10-11T07:17:09.466Z,11.84
2022-10-11T07:18:09.450Z,11.84
2022-10-11T07:19:09.441Z,11.91
2022-10-11T07:20:09.421Z,11.99
2022-10-11T07:21:09.442Z,11.97
2022-10-11T07:22:09.422Z,11.91
2022-10-11T07:23:09.386Z,12.09
2022-10-11T07:24:09.387Z,12.03
2022-10-11T07:25:09.361Z,12.24
2022-10-11T07:26:09.780Z,12.28
2022-10-11T07:27:09.339Z,12.47
2022-10-11T07:28:09.456Z,12.40
2022-10-11T07:29:09.328Z,12.54
2022-10-11T07:30:09.315Z,12.57
2022-10-11T07:31:09.308Z,12.53
2022-10-11T07:32:09.293Z,12.64
2022-10-11T07:33:09.300Z,12.68
2022-10-11T07:34:09.273Z,12.55
2022-10-11T07:35:09.254Z,12.58
2022-10-11T07:36:09.532Z,12.67
2022-10-11T07:37:09.267Z,12.61
2022-10-11T07:38:09.229Z,12.72
2022-10-11T07:39:09.220Z,12.78
2022-10-11T07:40:09.236Z,12.79
2022-10-11T07:41:09.187Z,12.86
2022-10-11T07:42:09.178Z,12.91
2022-10-11T07:43:09.175Z,12.90
2022-10-11T07:44:09.198Z,12.97
2022-10-11T07:45:09.149Z,13.11
2022-10-11T07:46:09.923Z,13.05
2022-10-11T07:47:11.412Z,13.15
2022-10-11T07:48:09.129Z,13.23
2022-10-11T07:49:09.116Z,13.27
2022-10-11T07:50:09.123Z,13.27
2022-10-11T07:51:09.079Z,13.37
2022-10-11T07:52:09.075Z,13.47
2022-10-11T07:53:09.081Z,13.46
2022-10-11T07:54:09.048Z,13.47
2022-10-11T07:55:09.041Z,13.56
2022-10-11T07:56:09.372Z,13.59
2022-10-11T07:57:09.014Z,13.63
2022-10-11T07:58:09.014Z,13.70
2022-10-11T07:59:09.041Z,13.79
2022-10-11T08:00:08.990Z,13.78
2022-10-11T08:01:09.079Z,13.79
2022-10-11T08:02:08.971Z,13.93
2022-10-11T08:03:08.953Z,13.93
2022-10-11T08:04:08.945Z,14.03
2022-10-11T08:05:08.946Z,14.07
2022-10-11T08:06:09.577Z,14.10
2022-10-11T08:07:08.929Z,14.12
2022-10-11T08:08:08.912Z,14.11
2022-10-11T08:09:08.899Z,14.20
2022-10-11T08:10:08.873Z,14.22
2022-10-11T08:11:08.905Z,14.22
2022-10-11T08:12:08.874Z,14.15
2022-10-11T08:13:08.861Z,14.10
2022-10-11T08:14:08.940Z,14.15
2022-10-11T08:15:08.829Z,14.12
2022-10-11T08:16:09.017Z,14.20
2022-10-11T08:17:08.804Z,14.36
2022-10-11T08:18:08.806Z,14.48
2022-10-11T08:19:08.809Z,14.59
2022-10-11T08:20:08.777Z,14.70
2022-10-11T08:21:08.770Z,14.78
2022-10-11T08:22:08.744Z,14.82
2022-10-11T08:23:08.739Z,14.96
2022-10-11T08:24:08.743Z,14.92
2022-10-11T08:25:08.737Z,14.81
2022-10-11T08:26:09.095Z,14.99
2022-10-11T08:27:08.686Z,15.11
2022-10-11T08:28:08.799Z,15.35
2022-10-11T08:29:08.690Z,15.73
2022-10-11T08:30:08.666Z,16.66
2022-10-11T08:31:08.665Z,17.79
2022-10-11T08:32:08.645Z,18.96
2022-10-11T08:33:08.865Z,20.29
2022-10-11T08:34:08.616Z,21.40
2022-10-11T08:35:08.613Z,22.36
2022-10-11T08:36:09.438Z,23.50
2022-10-11T08:37:08.580Z,24.42
2022-10-11T08:38:08.583Z,25.17
2022-10-11T08:39:08.559Z,25.77
2022-10-11T08:40:08.572Z,26.38
2022-10-11T08:41:08.561Z,26.83
2022-10-11T08:42:08.535Z,27.27
2022-10-11T08:43:08.514Z,27.33
2022-10-11T08:44:08.510Z,27.32
2022-10-11T08:45:11.547Z,27.36
2022-10-11T08:46:09.158Z,27.37
2022-10-11T08:47:08.479Z,27.75
2022-10-11T08:48:08.474Z,28.22
2022-10-11T08:49:08.458Z,28.70
2022-10-11T08:50:08.458Z,29.17
2022-10-11T08:51:08.429Z,29.34
2022-10-11T08:52:08.434Z,28.49
2022-10-11T08:53:08.406Z,27.17
2022-10-11T08:54:08.414Z,25.51
2022-10-11T08:55:08.406Z,24.60
2022-10-11T08:56:09.071Z,23.87
2022-10-11T08:57:08.392Z,23.23
2022-10-11T08:58:08.370Z,22.59
2022-10-11T08:59:08.347Z,21.92
2022-10-11T09:00:08.344Z,21.46
2022-10-11T09:01:08.380Z,21.11
2022-10-11T09:02:08.317Z,20.75
2022-10-11T09:03:09.507Z,20.60
2022-10-11T09:04:08.303Z,20.74
2022-10-11T09:05:08.284Z,21.12
2022-10-11T09:06:09.007Z,21.51
2022-10-11T09:07:08.286Z,21.48
2022-10-11T09:08:08.258Z,20.84
2022-10-11T09:09:08.260Z,20.58
2022-10-11T09:10:08.232Z,20.40
2022-10-11T09:11:08.230Z,20.24
2022-10-11T09:12:08.251Z,20.06
2022-10-11T09:13:08.222Z,19.91
2022-10-11T09:14:08.210Z,19.86
2022-10-11T09:15:08.189Z,19.82
2022-10-11T09:16:08.521Z,19.70
2022-10-11T09:17:08.181Z,19.55
2022-10-11T09:18:08.170Z,19.54
2022-10-11T09:19:08.146Z,19.49
2022-10-11T09:20:08.136Z,19.39
2022-10-11T09:21:08.123Z,19.30
2022-10-11T09:22:08.114Z,19.22
2022-10-11T09:23:08.114Z,19.07
2022-10-11T09:24:08.133Z,18.93
2022-10-11T09:25:08.074Z,18.83
2022-10-11T09:26:08.530Z,18.77
2022-10-11T09:27:08.057Z,18.59
2022-10-11T09:28:08.136Z,18.44
2022-10-11T09:29:08.128Z,18.52
2022-10-11T09:30:08.040Z,18.59
2022-10-11T09:31:08.006Z,18.78
2022-10-11T09:32:07.997Z,18.90
2022-10-11T09:33:07.991Z,18.81
2022-10-11T09:34:07.974Z,18.81
2022-10-11T09:35:08.007Z,18.75
2022-10-11T09:36:08.308Z,18.83
2022-10-11T09:37:07.974Z,18.80
2022-10-11T09:38:07.944Z,19.12
2022-10-11T09:39:07.922Z,19.62
2022-10-11T09:40:07.914Z,20.60
2022-10-11T09:41:07.907Z,21.72
2022-10-11T09:42:07.955Z,22.57
2022-10-11T09:43:07.902Z,22.81
2022-10-11T09:44:07.901Z,22.87
2022-10-11T09:45:07.887Z,22.48
2022-10-11T09:46:08.307Z,22.32
2022-10-11T09:47:07.839Z,22.11
2022-10-11T09:48:07.830Z,22.04
2022-10-11T09:49:07.834Z,21.69
2022-10-11T09:50:07.817Z,21.39
2022-10-11T09:51:07.793Z,20.99
2022-10-11T09:52:07.792Z,20.62
2022-10-11T09:53:07.780Z,20.22
2022-10-11T09:54:07.784Z,20.13
2022-10-11T09:55:07.766Z,19.76
2022-10-11T09:56:08.329Z,19.47
2022-10-11T09:57:07.738Z,19.33
2022-10-11T09:58:07.717Z,19.21
2022-10-11T09:59:07.718Z,19.15
2022-10-11T10:00:07.721Z,19.08
2022-10-11T10:01:08.459Z,18.80
2022-10-11T10:02:07.745Z,18.63
2022-10-11T10:03:07.671Z,18.37
2022-10-11T10:04:07.675Z,18.34
2022-10-11T10:05:07.651Z,18.37
2022-10-11T10:06:08.377Z,18.41
2022-10-11T10:07:07.637Z,18.37
2022-10-11T10:08:07.636Z,18.33
2022-10-11T10:09:07.604Z,18.01
2022-10-11T10:10:07.610Z,17.76
2022-10-11T10:11:07.587Z,17.65
2022-10-11T10:12:07.572Z,17.74
2022-10-11T10:13:07.567Z,17.79
2022-10-11T10:14:07.551Z,17.87
2022-10-11T10:15:07.551Z,17.89
2022-10-11T10:16:08.056Z,17.86
2022-10-11T10:17:07.569Z,17.98
2022-10-11T10:18:07.538Z,18.08
2022-10-11T10:19:07.501Z,18.15
2022-10-11T10:20:07.500Z,18.31
2022-10-11T10:21:07.497Z,18.33
2022-10-11T10:22:07.474Z,18.28
2022-10-11T10:23:07.451Z,18.34
2022-10-11T10:24:07.461Z,18.44
2022-10-11T10:25:07.429Z,18.53
2022-10-11T10:26:08.018Z,18.63
2022-10-11T10:27:07.405Z,18.80
2022-10-11T10:28:07.442Z,18.75
2022-10-11T10:29:07.395Z,18.81
2022-10-11T10:30:07.381Z,18.90
2022-10-11T10:31:07.367Z,19.00
2022-10-11T10:32:14.382Z,19.07
2022-10-11T10:33:08.371Z,18.95
2022-10-11T10:34:07.338Z,18.78
2022-10-11T10:35:07.320Z,18.70
2022-10-11T10:36:07.794Z,18.70
2022-10-11T10:37:07.325Z,18.65
2022-10-11T10:38:07.289Z,18.59
2022-10-11T10:39:07.299Z,18.53
2022-10-11T10:40:07.266Z,18.52
2022-10-11T10:41:07.256Z,18.33
2022-10-11T10:42:07.266Z,18.28
2022-10-11T10:43:07.255Z,18.20
2022-10-11T10:44:07.226Z,18.00
2022-10-11T10:45:11.296Z,17.83
2022-10-11T10:46:08.642Z,17.49
2022-10-11T10:47:07.193Z,17.22
2022-10-11T10:48:07.195Z,17.12
2022-10-11T10:50:08.158Z,17.05
2022-10-11T10:51:10.455Z,17.14
2022-10-11T10:52:07.146Z,17.23
2022-10-11T10:53:07.147Z,17.30
2022-10-11T10:54:07.142Z,17.24
2022-10-11T10:55:07.113Z,17.23
2022-10-11T10:56:07.432Z,17.39
2022-10-11T10:57:07.093Z,17.57
2022-10-11T10:58:07.077Z,17.59
2022-10-11T10:59:07.059Z,17.79
2022-10-11T11:00:07.067Z,18.05
2022-10-11T11:01:07.064Z,18.20
2022-10-11T11:02:28.228Z,18.28
2022-10-11T11:03:08.021Z,18.18
2022-10-11T11:04:07.026Z,18.23
2022-10-11T11:05:07.017Z,18.37
2022-10-11T11:06:07.479Z,18.44
2022-10-11T11:07:06.975Z,18.59
2022-10-11T11:08:06.975Z,18.50
2022-10-11T11:09:06.953Z,18.49
2022-10-11T11:10:06.957Z,18.47
2022-10-11T11:11:06.955Z,18.37
2022-10-11T11:12:06.947Z,18.34
2022-10-11T11:13:06.934Z,18.40
2022-10-11T11:14:06.903Z,18.28
2022-10-11T11:15:06.897Z,18.03
2022-10-11T11:16:07.295Z,18.05
2022-10-11T11:17:06.887Z,18.11
2022-10-11T11:18:06.874Z,18.25
2022-10-11T11:19:06.853Z,18.37
2022-10-11T11:20:06.842Z,18.47
2022-10-11T11:21:06.878Z,18.56
2022-10-11T11:22:06.821Z,18.49
2022-10-11T11:23:06.849Z,18.58
2022-10-11T11:24:06.811Z,18.75
2022-10-11T11:25:06.783Z,18.80
2022-10-11T11:26:07.115Z,18.84
2022-10-11T11:27:06.788Z,18.98
2022-10-11T11:28:06.766Z,19.09
2022-10-11T11:29:06.757Z,19.21
2022-10-11T11:30:06.737Z,19.27
2022-10-11T11:31:07.073Z,19.21
2022-10-11T11:32:06.712Z,18.98
2022-10-11T11:33:06.706Z,18.89
2022-10-11T11:34:06.700Z,18.80
2022-10-11T11:35:06.686Z,18.77
2022-10-11T11:36:07.181Z,18.80
2022-10-11T11:37:06.706Z,18.73
2022-10-11T11:38:06.770Z,18.77
2022-10-11T11:39:06.649Z,18.90
2022-10-11T11:40:06.627Z,18.95
2022-10-11T11:41:07.066Z,19.19
2022-10-11T11:42:06.614Z,19.18
2022-10-11T11:43:06.611Z,19.12
2022-10-11T11:44:06.578Z,19.11
2022-10-11T11:45:06.576Z,19.19
2022-10-11T11:46:06.558Z,19.19
2022-10-11T11:47:06.556Z,19.31
2022-10-11T11:48:06.542Z,19.24
2022-10-11T11:49:10.811Z,18.96
2022-10-11T11:50:07.538Z,18.81
2022-10-11T11:51:06.990Z,18.77
2022-10-11T11:52:06.493Z,18.83
2022-10-11T11:53:06.505Z,18.95
2022-10-11T11:54:06.474Z,19.15
2022-10-11T11:55:06.468Z,19.26
2022-10-11T11:56:06.470Z,19.39
2022-10-11T11:57:06.437Z,19.41
2022-10-11T11:58:07.365Z,19.44
2022-10-11T11:59:06.425Z,19.37
2022-10-11T12:00:06.407Z,19.47
2022-10-11T12:01:06.705Z,19.52
2022-10-11T12:02:06.593Z,19.24
2022-10-11T12:03:06.372Z,19.24
2022-10-11T12:04:06.362Z,19.30
2022-10-11T12:05:06.370Z,19.27
2022-10-11T12:06:06.367Z,19.29
2022-10-11T12:07:17.948Z,19.30
2022-10-11T12:08:07.322Z,19.30
2022-10-11T12:09:06.381Z,19.15
2022-10-11T12:10:06.299Z,19.08
2022-10-11T12:11:06.733Z,19.07
2022-10-11T12:12:06.319Z,18.95
2022-10-11T12:13:06.277Z,18.86
2022-10-11T12:14:06.257Z,18.77
2022-10-11T12:15:06.245Z,18.45
2022-10-11T12:16:06.238Z,18.35
2022-10-11T12:17:06.235Z,18.25
2022-10-11T12:18:06.253Z,18.16
2022-10-11T12:19:06.207Z,18.20
2022-10-11T12:20:06.194Z,18.18
2022-10-11T12:21:06.616Z,18.19
2022-10-11T12:22:06.175Z,18.22
2022-10-11T12:23:06.162Z,18.08
2022-10-11T12:24:06.194Z,18.07
2022-10-11T12:25:06.164Z,17.97
2022-10-11T12:26:06.153Z,17.94
2022-10-11T12:27:06.118Z,17.89
2022-10-11T12:28:06.112Z,17.86
2022-10-11T12:29:06.103Z,17.85
2022-10-11T12:30:06.101Z,17.83
2022-10-11T12:31:06.440Z,17.82
2022-10-11T12:32:06.064Z,17.82
2022-10-11T12:33:06.054Z,17.78
2022-10-11T12:34:06.040Z,17.79
2022-10-11T12:35:06.062Z,17.72
2022-10-11T12:36:08.417Z,17.70
2022-10-11T12:37:06.820Z,17.56
2022-10-11T12:38:06.000Z,17.52
2022-10-11T12:39:05.985Z,17.59
2022-10-11T12:40:05.979Z,17.42
2022-10-11T12:41:05.994Z,17.30
2022-10-11T12:42:06.125Z,17.29
2022-10-11T12:43:05.941Z,17.12
2022-10-11T12:44:05.945Z,17.11
2022-10-11T12:45:05.929Z,17.06
2022-10-11T12:46:06.234Z,16.99
2022-10-11T12:47:05.907Z,16.87
2022-10-11T12:48:05.899Z,16.96
2022-10-11T12:49:05.886Z,17.01
2022-10-11T12:50:05.878Z,17.11
2022-10-11T12:51:05.857Z,17.16
2022-10-11T12:52:05.865Z,17.23
2022-10-11T12:53:05.835Z,17.41